Time;durP1;ratioP1;P1;durP2;ratioP2;P2;SDS_P1;SDS_P2;PMS_P1;PMS_P2;Temp;Humidity;BMP_temperature;BMP_pressure;BME280_temperature;BME280_humidity;BME280_pressure;Samples;Min_cycle;Max_cycle;Signal;HPM_P1;HPM_P2
2024/01/15 00:00:46;;;;;;;15.73;13.90;;;;;;;1.78;100.00;98523.41;4990777;28;20618;-80
2024/01/15 00:03:12;;;;;;;14.63;13.17;;;;;;;1.73;100.00;98509.78;4990920;28;20267;-79
2024/01/15 00:05:39;;;;;;;13.53;12.13;;;;;;;1.59;100.00;98497.13;4999906;28;20235;-78
2024/01/15 00:08:05;;;;;;;14.73;13.33;;;;;;;1.57;100.00;98484.28;4995247;28;20230;-79
2024/01/15 00:10:32;;;;;;;14.87;13.33;;;;;;;1.54;100.00;98474.03;4991346;28;20234;-77
2024/01/15 00:12:58;;;;;;;14.73;12.03;;;;;;;1.67;100.00;98453.31;4990171;28;20649;-79
2024/01/15 00:15:25;;;;;;;17.10;13.43;;;;;;;1.47;100.00;98445.91;4990186;28;20297;-78
2024/01/15 00:17:52;;;;;;;16.87;14.13;;;;;;;1.48;100.00;98432.16;4986132;28;20219;-79
2024/01/15 00:20:19;;;;;;;14.47;12.83;;;;;;;1.41;100.00;98423.69;4991865;28;20203;-79
2024/01/15 00:22:45;;;;;;;15.20;13.23;;;;;;;1.73;100.00;98405.19;4992150;28;20223;-79
2024/01/15 00:25:11;;;;;;;14.53;13.03;;;;;;;1.59;100.00;98425.13;4992547;28;20227;-80
2024/01/15 00:27:38;;;;;;;13.30;12.07;;;;;;;1.48;100.00;98442.44;4994111;28;20207;-79
2024/01/15 00:30:05;;;;;;;14.47;13.07;;;;;;;1.65;100.00;98429.34;4992627;28;20254;-80
2024/01/15 00:32:32;;;;;;;12.07;10.97;;;;;;;1.63;100.00;98431.09;4995075;28;20578;-80
2024/01/15 00:34:59;;;;;;;11.17;10.13;;;;;;;1.55;100.00;98428.63;4993437;28;20687;-80
2024/01/15 00:37:25;;;;;;;10.43;9.43;;;;;;;1.75;100.00;98436.03;4993697;28;20780;-79
2024/01/15 00:39:52;;;;;;;9.60;8.60;;;;;;;1.92;100.00;98453.75;4994616;28;20211;-79
2024/01/15 00:42:18;;;;;;;9.20;8.30;;;;;;;1.70;100.00;98464.38;4994656;28;20282;-79
2024/01/15 00:44:45;;;;;;;10.27;9.37;;;;;;;1.67;100.00;98466.16;4993592;28;20200;-80
2024/01/15 00:47:11;;;;;;;8.90;8.10;;;;;;;1.71;100.00;98478.94;4994583;28;20283;-79
2024/01/15 00:49:39;;;;;;;8.53;7.70;;;;;;;1.74;100.00;98472.91;4993405;28;20238;-80
2024/01/15 00:52:09;;;;;;;9.43;8.63;;;;;;;1.78;100.00;98478.00;4993139;28;20295;-80
2024/01/15 00:54:35;;;;;;;9.97;8.30;;;;;;;1.72;100.00;98467.78;4994084;28;20242;-80
2024/01/15 00:57:02;;;;;;;9.83;8.93;;;;;;;1.46;100.00;98467.31;4993421;28;20759;-80
2024/01/15 00:59:28;;;;;;;10.00;9.10;;;;;;;1.24;100.00;98423.06;4991917;28;20211;-80
2024/01/15 01:01:55;;;;;;;9.83;8.77;;;;;;;1.26;100.00;98385.34;4994290;28;20251;-80
2024/01/15 01:04:21;;;;;;;8.87;7.97;;;;;;;1.40;100.00;98383.41;4994669;28;20203;-78
2024/01/15 01:06:48;;;;;;;8.87;7.80;;;;;;;1.41;100.00;98381.69;4992171;28;20274;-80
2024/01/15 01:09:15;;;;;;;9.17;8.27;;;;;;;1.59;100.00;98379.69;4994491;28;20258;-80
2024/01/15 01:11:42;;;;;;;8.40;7.57;;;;;;;1.36;100.00;98400.59;4995086;28;20246;-80
2024/01/15 01:14:08;;;;;;;8.43;7.63;;;;;;;1.36;100.00;98415.19;5002587;28;20211;-78
2024/01/15 01:16:38;;;;;;;7.40;6.80;;;;;;;1.34;100.00;98430.63;5006884;28;20254;-77
2024/01/15 01:19:05;;;;;;;7.33;6.73;;;;;;;1.27;100.00;98435.88;5009378;28;20260;-77
2024/01/15 01:21:31;;;;;;;6.50;5.90;;;;;;;1.47;100.00;98458.75;5011765;28;20231;-77
2024/01/15 01:23:58;;;;;;;7.87;5.63;;;;;;;1.61;99.69;98489.41;5009888;28;20617;-78
2024/01/15 01:26:26;;;;;;;6.60;5.23;;;;;;;1.81;98.36;98528.53;5000355;28;20258;-82
2024/01/15 01:28:52;;;;;;;5.77;5.00;;;;;;;1.71;96.99;98561.25;4993729;28;20203;-79
2024/01/15 01:31:18;;;;;;;8.27;5.17;;;;;;;1.48;96.56;98594.97;4993394;28;20242;-78
2024/01/15 01:33:45;;;;;;;13.23;5.47;;;;;;;1.70;95.79;98612.69;4994468;28;20200;-80
2024/01/15 01:36:11;;;;;;;6.73;4.77;;;;;;;1.79;95.29;98633.16;4993867;28;20232;-79
2024/01/15 01:38:38;;;;;;;6.13;5.03;;;;;;;1.64;94.80;98656.50;4993015;28;20204;-79
2024/01/15 01:41:04;;;;;;;14.07;6.20;;;;;;;1.66;94.65;98647.03;4993674;28;20266;-78
2024/01/15 01:43:32;;;;;;;6.07;4.50;;;;;;;1.59;94.07;98666.84;4996761;28;20220;-80
2024/01/15 01:45:59;;;;;;;6.07;5.07;;;;;;;1.66;93.69;98672.75;4997236;28;20802;-79
2024/01/15 01:48:26;;;;;;;8.17;4.60;;;;;;;1.79;93.29;98677.75;4997404;28;20211;-80
2024/01/15 01:50:53;;;;;;;11.73;5.30;;;;;;;1.71;93.40;98694.16;5005571;28;20298;-78
2024/01/15 01:53:20;;;;;;;11.20;5.63;;;;;;;1.59;93.44;98687.41;4998336;28;20231;-79
2024/01/15 01:55:48;;;;;;;8.70;4.97;;;;;;;1.58;94.26;98681.41;4997378;28;20714;-79
2024/01/15 01:58:15;;;;;;;6.20;4.97;;;;;;;1.63;93.42;98673.66;4995801;28;20726;-80
2024/01/15 02:00:43;;;;;;;5.70;4.60;;;;;;;1.82;93.28;98687.13;4997360;28;20262;-80
2024/01/15 02:03:10;;;;;;;10.10;4.53;;;;;;;1.82;92.49;98691.44;4996779;28;20283;-80
2024/01/15 02:05:37;;;;;;;6.73;4.37;;;;;;;1.82;91.33;98712.84;4997624;28;20224;-80
2024/01/15 02:08:03;;;;;;;5.50;3.70;;;;;;;1.89;91.52;98724.78;4996881;28;20304;-81
2024/01/15 02:10:30;;;;;;;8.13;4.17;;;;;;;1.83;90.53;98742.03;4997508;28;20207;-80
2024/01/15 02:12:56;;;;;;;6.30;4.07;;;;;;;1.70;91.06;98751.56;4996738;28;20745;-79
2024/01/15 02:15:22;;;;;;;7.03;3.67;;;;;;;1.96;90.61;98729.00;4996468;28;20203;-79
2024/01/15 02:18:00;;;;;;;5.57;4.07;;;;;;;1.94;90.55;98753.03;4996792;28;20729;-78
2024/01/15 02:20:27;;;;;;;6.67;3.63;;;;;;;1.78;90.62;98760.06;4996970;28;20603;-79
2024/01/15 02:22:54;;;;;;;6.20;3.57;;;;;;;2.10;90.35;98749.44;4996039;28;20664;-80
2024/01/15 02:25:21;;;;;;;6.83;3.70;;;;;;;2.03;90.36;98764.97;4996275;28;20231;-78
2024/01/15 02:27:48;;;;;;;6.17;3.93;;;;;;;1.92;89.54;98763.34;4994840;28;20231;-81
2024/01/15 02:30:16;;;;;;;7.33;4.07;;;;;;;2.18;89.81;98760.47;4996526;28;20230;-80
2024/01/15 02:32:42;;;;;;;6.37;3.57;;;;;;;2.05;90.14;98774.34;4996308;28;20248;-81
2024/01/15 02:35:09;;;;;;;4.13;3.63;;;;;;;1.98;90.08;98765.00;4995981;28;20215;-79
2024/01/15 02:37:36;;;;;;;8.20;3.63;;;;;;;2.22;90.07;98769.03;4996057;28;20277;-79
2024/01/15 02:40:03;;;;;;;14.27;4.50;;;;;;;2.03;89.67;98767.53;4996610;28;20208;-80
2024/01/15 02:42:31;;;;;;;10.57;3.80;;;;;;;1.98;89.70;98771.00;4996141;28;20235;-79
2024/01/15 02:44:57;;;;;;;5.00;3.20;;;;;;;1.88;90.33;98778.81;4995291;28;20207;-78
2024/01/15 02:47:25;;;;;;;4.13;2.73;;;;;;;2.02;90.16;98751.22;4996634;28;20279;-80
2024/01/15 02:49:54;;;;;;;11.13;3.13;;;;;;;1.94;90.05;98768.47;4995219;28;20826;-79
2024/01/15 02:52:21;;;;;;;4.80;3.07;;;;;;;2.19;88.81;98754.44;4995961;28;20254;-78
2024/01/15 02:54:47;;;;;;;6.00;3.23;;;;;;;2.13;88.94;98763.97;4995122;28;20208;-80
2024/01/15 02:57:13;;;;;;;6.87;2.83;;;;;;;2.12;88.36;98778.56;4996807;28;20219;-80
2024/01/15 02:59:41;;;;;;;5.53;3.00;;;;;;;2.04;87.93;98800.09;4995087;28;20256;-80
2024/01/15 03:02:07;;;;;;;6.20;2.50;;;;;;;2.18;88.70;98800.78;4996119;28;20278;-78
2024/01/15 03:04:34;;;;;;;6.27;2.77;;;;;;;1.92;88.22;98801.94;4996385;28;20200;-80
2024/01/15 03:07:00;;;;;;;7.47;3.37;;;;;;;2.02;88.06;98833.56;4996240;28;20598;-77
2024/01/15 03:09:26;;;;;;;4.03;2.57;;;;;;;2.16;88.25;98803.41;4995539;28;20203;-80
2024/01/15 03:11:53;;;;;;;5.23;2.47;;;;;;;2.11;88.36;98792.28;4995264;28;20246;-78
2024/01/15 03:14:20;;;;;;;4.63;1.93;;;;;;;2.06;88.58;98804.38;4995820;28;20258;-79
2024/01/15 03:16:47;;;;;;;5.80;2.83;;;;;;;2.13;88.47;98795.69;4995326;28;20223;-80
2024/01/15 03:19:14;;;;;;;8.67;3.07;;;;;;;1.95;87.91;98798.47;4995235;28;20232;-80
2024/01/15 03:21:40;;;;;;;7.63;3.13;;;;;;;1.95;88.25;98791.63;4995603;28;20662;-80
2024/01/15 03:24:06;;;;;;;6.20;2.77;;;;;;;2.24;88.72;98782.72;4994650;28;20247;-80
2024/01/15 03:26:33;;;;;;;5.07;2.30;;;;;;;2.17;87.96;98807.66;4996172;28;20227;-79
2024/01/15 03:29:02;;;;;;;8.37;2.97;;;;;;;2.09;88.18;98824.06;4993827;28;20852;-80
2024/01/15 03:31:29;;;;;;;5.27;2.33;;;;;;;2.04;88.21;98800.94;4995936;28;20207;-80
2024/01/15 03:33:56;;;;;;;4.43;2.67;;;;;;;2.11;88.61;98788.88;4995266;28;20207;-80
2024/01/15 03:36:23;;;;;;;7.97;2.40;;;;;;;2.16;88.86;98787.09;4995194;28;20231;-79
2024/01/15 03:38:49;;;;;;;9.40;3.00;;;;;;;2.11;89.17;98789.72;4995114;28;20212;-79
2024/01/15 03:41:16;;;;;;;8.40;3.70;;;;;;;2.18;89.36;98759.59;4995324;28;20207;-79
2024/01/15 03:43:42;;;;;;;12.10;2.93;;;;;;;2.19;90.48;98741.56;4993736;28;20224;-80
2024/01/15 03:46:08;;;;;;;5.93;3.43;;;;;;;1.82;91.60;98725.72;4994661;28;20246;-79
2024/01/15 03:48:35;;;;;;;7.50;2.77;;;;;;;1.90;92.04;98698.22;4994562;28;20208;-79
2024/01/15 03:51:03;;;;;;;5.17;3.00;;;;;;;1.99;91.96;98674.06;4994958;28;20203;-79
2024/01/15 03:53:29;;;;;;;6.67;2.63;;;;;;;2.14;91.05;98691.03;4994619;28;20200;-79
2024/01/15 03:55:56;;;;;;;3.77;2.57;;;;;;;2.08;90.61;98701.41;4994233;28;20229;-78
2024/01/15 03:58:23;;;;;;;6.40;3.13;;;;;;;2.03;89.91;98711.75;4993612;28;20693;-79
2024/01/15 04:00:49;;;;;;;8.80;2.40;;;;;;;2.23;90.67;98700.34;4994777;28;20214;-79
2024/01/15 04:03:16;;;;;;;7.47;2.77;;;;;;;2.22;90.29;98712.38;4993947;28;20278;-78
2024/01/15 04:05:42;;;;;;;4.20;2.40;;;;;;;2.19;91.30;98715.00;4993416;28;20251;-79
2024/01/15 04:08:10;;;;;;;6.03;2.40;;;;;;;1.98;91.80;98732.41;4994426;28;20250;-79
2024/01/15 04:10:36;;;;;;;5.23;2.80;;;;;;;2.06;92.24;98683.44;4993614;28;20243;-80
2024/01/15 04:13:03;;;;;;;6.40;2.60;;;;;;;2.03;91.60;98706.63;4993680;28;20208;-80
2024/01/15 04:15:29;;;;;;;8.97;2.93;;;;;;;2.16;90.84;98708.16;4994048;28;20219;-80
2024/01/15 04:17:56;;;;;;;4.60;2.60;;;;;;;2.10;90.46;98710.81;4993801;28;20219;-79
2024/01/15 04:20:22;;;;;;;8.03;2.40;;;;;;;2.12;90.54;98713.34;4997648;28;20253;-78
2024/01/15 04:22:48;;;;;;;11.03;2.70;;;;;;;2.19;90.68;98715.84;4997983;28;20231;-78
2024/01/15 04:25:16;;;;;;;7.87;2.67;;;;;;;1.96;90.41;98730.69;4994064;28;20250;-77
2024/01/15 04:27:42;;;;;;;9.93;4.70;;;;;;;2.09;90.04;98737.41;4994118;28;20203;-80
2024/01/15 04:30:10;;;;;;;6.80;2.90;;;;;;;2.22;91.01;98721.81;4992594;28;20204;-78
2024/01/15 04:32:36;;;;;;;9.43;2.90;;;;;;;1.92;90.95;98719.63;4993596;28;20195;-77
2024/01/15 04:35:03;;;;;;;8.63;2.27;;;;;;;2.04;91.61;98722.91;4992525;28;20219;-79
2024/01/15 04:37:29;;;;;;;5.80;2.60;;;;;;;1.94;91.73;98710.16;4993748;28;20221;-79
2024/01/15 04:39:57;;;;;;;7.60;2.40;;;;;;;1.89;91.79;98700.78;4994324;28;20208;-79
2024/01/15 04:42:25;;;;;;;4.03;2.50;;;;;;;1.85;92.57;98668.25;4985637;28;20210;-79
2024/01/15 04:44:51;;;;;;;5.73;2.60;;;;;;;2.16;91.60;98668.69;4992740;28;20203;-80
2024/01/15 04:47:17;;;;;;;5.27;2.57;;;;;;;2.05;91.22;98686.00;4993862;28;20263;-78
2024/01/15 04:49:44;;;;;;;6.73;2.67;;;;;;;2.10;91.65;98655.91;4992063;28;20254;-78
2024/01/15 04:52:10;;;;;;;4.63;2.90;;;;;;;2.20;91.42;98660.09;4993260;28;20262;-80
2024/01/15 04:54:37;;;;;;;5.27;1.90;;;;;;;2.01;92.07;98676.63;4993257;28;20204;-78
2024/01/15 04:57:04;;;;;;;5.00;3.30;;;;;;;1.95;91.85;98668.09;4992617;28;20281;-78
2024/01/15 04:59:32;;;;;;;4.60;2.13;;;;;;;2.21;90.61;98666.91;4991680;28;20207;-81
2024/01/15 05:02:01;;;;;;;5.23;2.33;;;;;;;1.98;91.31;98690.38;4993242;28;20678;-77
2024/01/15 05:04:27;;;;;;;4.03;2.43;;;;;;;2.06;91.44;98677.41;4992273;28;20237;-78
2024/01/15 05:06:54;;;;;;;5.40;3.17;;;;;;;2.11;91.45;98686.78;4992048;28;20246;-78
2024/01/15 05:09:20;;;;;;;8.50;2.47;;;;;;;2.09;91.33;98679.94;4993052;28;20224;-78
2024/01/15 05:11:47;;;;;;;7.90;2.73;;;;;;;2.23;91.47;98661.75;4992519;28;20235;-80
2024/01/15 05:14:13;;;;;;;5.17;2.30;;;;;;;1.87;93.20;98636.50;4998305;28;20212;-78
2024/01/15 05:16:47;;;;;;;3.40;2.17;;;;;;;1.79;94.59;98626.28;4994434;28;20262;-79
2024/01/15 05:19:13;;;;;;;7.00;2.40;;;;;;;2.14;93.89;98583.81;4995930;28;20229;-80
2024/01/15 05:21:39;;;;;;;4.50;2.40;;;;;;;2.04;94.07;98589.94;4997213;28;20669;-79
2024/01/15 05:24:06;;;;;;;4.00;2.67;;;;;;;2.13;93.67;98602.66;4996245;28;20223;-78
2024/01/15 05:26:32;;;;;;;5.50;2.50;;;;;;;1.91;94.61;98594.41;4996781;28;20278;-79
2024/01/15 05:28:59;;;;;;;4.53;2.70;;;;;;;1.95;95.12;98588.34;4995669;28;20207;-79
2024/01/15 05:31:25;;;;;;;6.63;3.20;;;;;;;1.83;95.88;98578.22;4997367;28;20266;-80
2024/01/15 05:33:53;;;;;;;6.73;3.67;;;;;;;1.71;97.65;98547.53;4996949;28;20251;-79
2024/01/15 05:36:19;;;;;;;5.77;3.40;;;;;;;1.72;99.13;98514.06;4995809;28;20262;-81
2024/01/15 05:38:46;;;;;;;7.77;4.10;;;;;;;1.74;99.94;98499.47;4995818;28;20626;-80
2024/01/15 05:41:13;;;;;;;8.13;3.97;;;;;;;1.65;99.62;98491.91;4996243;28;20211;-79
2024/01/15 05:43:39;;;;;;;6.90;4.63;;;;;;;1.79;99.62;98463.41;4995991;28;20230;-80
2024/01/15 05:46:05;;;;;;;6.17;3.83;;;;;;;1.74;98.99;98471.16;4996864;28;20231;-80
2024/01/15 05:48:32;;;;;;;8.03;4.40;;;;;;;1.81;99.68;98465.97;4997106;28;20207;-80
2024/01/15 05:50:59;;;;;;;8.67;4.10;;;;;;;1.83;99.32;98469.34;4996565;28;20239;-81
2024/01/15 05:53:29;;;;;;;5.03;3.87;;;;;;;1.81;98.80;98471.94;4996008;28;20671;-80
2024/01/15 05:55:56;;;;;;;4.97;3.60;;;;;;;1.92;98.01;98469.19;4996488;28;20255;-79
2024/01/15 05:58:23;;;;;;;7.10;3.90;;;;;;;1.82;97.89;98473.63;4995326;28;20217;-79
2024/01/15 06:00:49;;;;;;;8.13;4.40;;;;;;;1.74;97.69;98481.44;4997535;28;20619;-80
2024/01/15 06:03:16;;;;;;;4.80;3.73;;;;;;;1.81;97.17;98482.22;4996076;28;20652;-80
2024/01/15 06:05:42;;;;;;;5.13;4.10;;;;;;;1.95;96.38;98503.44;4995604;28;20277;-78
2024/01/15 06:08:10;;;;;;;8.53;3.83;;;;;;;1.95;96.04;98503.44;4995770;28;20235;-80
2024/01/15 06:10:36;;;;;;;7.33;3.60;;;;;;;2.03;95.61;98505.06;4996065;28;20261;-81
2024/01/15 06:13:03;;;;;;;7.37;3.40;;;;;;;1.88;96.25;98519.00;4995697;28;20231;-81
2024/01/15 06:15:29;;;;;;;6.57;3.27;;;;;;;1.94;95.36;98521.47;4987920;28;20261;-79
2024/01/15 06:17:55;;;;;;;5.17;3.90;;;;;;;1.91;96.90;98514.66;4996424;28;20258;-79
2024/01/15 06:20:22;;;;;;;5.03;3.30;;;;;;;1.82;98.58;98504.50;4995668;28;20725;-80
2024/01/15 06:22:48;;;;;;;5.40;3.83;;;;;;;1.69;99.58;98472.97;4995994;28;20235;-80
2024/01/15 06:25:16;;;;;;;4.07;3.63;;;;;;;1.83;100.00;98446.22;4996180;28;20701;-80
2024/01/15 06:27:42;;;;;;;6.10;3.80;;;;;;;1.81;100.00;98432.53;4995685;28;20258;-80
2024/01/15 06:30:09;;;;;;;6.60;3.93;;;;;;;1.71;100.00;98416.38;4995995;28;20211;-81
2024/01/15 06:32:36;;;;;;;6.40;3.90;;;;;;;1.74;100.00;98411.16;4996333;28;20343;-79
2024/01/15 06:35:02;;;;;;;8.93;3.57;;;;;;;1.60;100.00;98401.09;4995359;28;20243;-79
2024/01/15 06:37:29;;;;;;;6.00;3.47;;;;;;;1.63;100.00;98384.81;4995421;28;20710;-79
2024/01/15 06:39:55;;;;;;;4.87;3.57;;;;;;;1.73;100.00;98394.91;4995345;28;20235;-79
2024/01/15 06:42:23;;;;;;;7.23;3.80;;;;;;;1.75;100.00;98402.59;4995799;28;20212;-78
2024/01/15 06:44:49;;;;;;;5.70;4.47;;;;;;;1.89;100.00;98405.78;4995762;28;20237;-79
2024/01/15 06:47:17;;;;;;;5.00;3.43;;;;;;;1.93;100.00;98420.28;4995211;28;20722;-79
2024/01/15 06:49:43;;;;;;;6.87;3.57;;;;;;;1.99;99.65;98445.91;4995167;28;20682;-80
2024/01/15 06:52:11;;;;;;;5.83;3.27;;;;;;;1.87;98.94;98445.28;4995047;28;20671;-81
2024/01/15 06:54:37;;;;;;;8.37;3.40;;;;;;;1.90;98.54;98478.66;4995196;28;20199;-79
2024/01/15 06:57:04;;;;;;;4.73;2.97;;;;;;;1.89;97.72;98494.97;4995455;28;20258;-79
2024/01/15 06:59:31;;;;;;;8.60;3.43;;;;;;;1.95;97.63;98497.44;4994323;28;20679;-81
2024/01/15 07:01:59;;;;;;;5.80;3.07;;;;;;;1.89;97.05;98516.41;4995900;28;20243;-80
2024/01/15 07:04:25;;;;;;;5.37;3.20;;;;;;;2.02;96.74;98517.06;4994241;28;20702;-78
2024/01/15 07:06:51;;;;;;;7.40;3.37;;;;;;;2.26;95.68;98528.72;4994585;28;20228;-78
2024/01/15 07:09:18;;;;;;;5.83;2.70;;;;;;;2.06;94.96;98552.19;4994895;28;20203;-79
2024/01/15 07:11:46;;;;;;;7.73;3.20;;;;;;;1.94;95.84;98553.22;4995895;28;20207;-76
2024/01/15 07:14:12;;;;;;;3.57;2.77;;;;;;;2.11;95.42;98549.53;4995128;28;20212;-79
2024/01/15 07:16:40;;;;;;;4.20;2.73;;;;;;;2.05;95.01;98572.78;4994530;28;20223;-78
2024/01/15 07:19:06;;;;;;;4.40;2.97;;;;;;;2.02;95.92;98567.66;4995035;28;20262;-79
2024/01/15 07:21:32;;;;;;;5.63;2.90;;;;;;;2.05;96.05;98559.91;4993521;28;20214;-80
2024/01/15 07:23:59;;;;;;;4.47;3.33;;;;;;;1.84;96.17;98561.06;4994822;28;20287;-79
2024/01/15 07:26:26;;;;;;;6.60;4.00;;;;;;;1.85;97.31;98547.34;4995109;28;20259;-79
2024/01/15 07:28:52;;;;;;;5.03;3.20;;;;;;;1.88;97.45;98544.72;4993693;28;20203;-80
2024/01/15 07:31:19;;;;;;;3.17;2.80;;;;;;;1.61;99.56;98520.25;4995277;28;20212;-80
2024/01/15 07:33:48;;;;;;;7.33;3.70;;;;;;;1.88;99.72;98496.69;4993307;28;20206;-79
2024/01/15 07:36:15;;;;;;;5.57;3.60;;;;;;;1.88;99.35;98499.25;4994041;28;20246;-79
2024/01/15 07:38:42;;;;;;;6.83;4.00;;;;;;;1.74;99.75;98496.88;4994414;28;20202;-79
2024/01/15 07:41:09;;;;;;;5.00;3.77;;;;;;;1.79;99.80;98483.97;4995794;28;20231;-79
2024/01/15 07:43:37;;;;;;;4.70;3.60;;;;;;;1.73;100.00;98481.50;4994187;28;20258;-79
2024/01/15 07:46:03;;;;;;;4.80;3.77;;;;;;;1.52;100.00;98465.50;4996172;28;20297;-78
2024/01/15 07:48:30;;;;;;;3.73;3.13;;;;;;;1.80;100.00;98444.50;4993624;28;20212;-79
2024/01/15 07:50:58;;;;;;;4.13;3.30;;;;;;;1.54;100.00;98437.19;4994786;28;20258;-80
2024/01/15 07:53:25;;;;;;;6.07;3.57;;;;;;;1.64;100.00;98419.91;4994308;28;20211;-80
2024/01/15 07:55:51;;;;;;;3.87;3.23;;;;;;;1.87;100.00;98419.56;4994021;28;20219;-79
2024/01/15 07:58:17;;;;;;;3.63;3.30;;;;;;;1.56;100.00;98446.56;4992629;28;20203;-79
2024/01/15 08:00:44;;;;;;;4.37;3.30;;;;;;;1.63;100.00;98433.66;4993672;28;20222;-77
2024/01/15 08:03:11;;;;;;;6.90;3.57;;;;;;;1.44;100.00;98420.22;4994361;28;20217;-78
2024/01/15 08:05:38;;;;;;;6.73;2.93;;;;;;;1.72;100.00;98397.50;4993453;28;20227;-79
2024/01/15 08:08:06;;;;;;;4.90;4.03;;;;;;;1.73;100.00;98404.34;4993855;28;20239;-80
2024/01/15 08:10:32;;;;;;;4.07;2.90;;;;;;;1.54;100.00;98421.78;4994235;28;20514;-78
2024/01/15 08:12:59;;;;;;;4.43;2.90;;;;;;;1.79;100.00;98417.94;5000978;28;20207;-80
2024/01/15 08:15:25;;;;;;;14.40;3.63;;;;;;;1.77;100.00;98437.69;5000028;28;20201;-80
2024/01/15 08:17:51;;;;;;;5.20;2.93;;;;;;;1.70;100.00;98456.66;5001158;28;20211;-77
2024/01/15 08:20:18;;;;;;;3.60;2.50;;;;;;;1.85;99.76;98463.31;5007425;28;20204;-79
2024/01/15 08:22:44;;;;;;;3.27;2.17;;;;;;;1.88;99.67;98486.38;5008202;28;20204;-78
2024/01/15 08:25:12;;;;;;;4.93;2.50;;;;;;;2.13;97.75;98506.59;5004676;28;20254;-78
2024/01/15 08:27:39;;;;;;;3.73;3.40;;;;;;;1.59;99.95;98497.97;5010476;28;20207;-80
2024/01/15 08:30:06;;;;;;;5.10;2.60;;;;;;;1.76;100.00;98474.59;5009588;28;20453;-79
2024/01/15 08:32:33;;;;;;;3.73;2.53;;;;;;;1.91;100.00;98465.78;5003937;28;20207;-81
2024/01/15 08:34:59;;;;;;;9.13;2.93;;;;;;;1.93;100.00;98473.47;5012468;28;20186;-78
2024/01/15 08:37:25;;;;;;;3.30;2.40;;;;;;;1.83;99.96;98462.47;5013414;28;20212;-80
2024/01/15 08:39:52;;;;;;;2.77;2.43;;;;;;;1.92;98.32;98497.50;5008935;28;20204;-77
2024/01/15 08:42:19;;;;;;;3.43;2.20;;;;;;;1.93;96.45;98530.91;5007533;28;20630;-81
2024/01/15 08:44:46;;;;;;;5.50;2.60;;;;;;;1.79;96.03;98548.28;5004547;28;20227;-78
2024/01/15 08:47:13;;;;;;;6.80;2.23;;;;;;;1.83;95.42;98560.22;5006726;28;20745;-80
2024/01/15 08:49:40;;;;;;;4.47;2.20;;;;;;;1.85;95.86;98579.06;5011876;28;20195;-78
2024/01/15 08:52:07;;;;;;;5.70;2.50;;;;;;;2.06;96.05;98577.03;5030906;28;20206;-79
2024/01/15 08:54:33;;;;;;;2.30;2.10;;;;;;;1.90;95.83;98581.56;5023254;28;20202;-78
2024/01/15 08:57:01;;;;;;;4.47;2.30;;;;;;;1.64;96.30;98587.06;5020619;28;20218;-78
2024/01/15 08:59:29;;;;;;;3.67;2.97;;;;;;;1.85;97.74;98562.78;5022921;28;20207;-77
2024/01/15 09:01:56;;;;;;;4.40;2.40;;;;;;;1.71;98.22;98557.84;5029829;28;20208;-78
2024/01/15 09:04:23;;;;;;;4.00;2.85;;;;;;;1.78;98.28;98539.72;5019700;28;20455;-78
2024/01/15 09:06:51;;;;;;;5.77;3.07;;;;;;;2.06;97.44;98525.56;5021912;28;20230;-81
2024/01/15 09:09:17;;;;;;;2.80;2.00;;;;;;;1.93;95.27;98566.09;5003537;28;20210;-80
2024/01/15 09:11:43;;;;;;;6.93;2.83;;;;;;;1.85;94.12;98598.81;5004237;28;20262;-80
2024/01/15 09:14:10;;;;;;;3.73;1.87;;;;;;;2.09;93.21;98633.63;5003302;28;20199;-75
2024/01/15 09:16:37;;;;;;;3.77;2.47;;;;;;;2.14;91.89;98658.44;5002937;28;20262;-78
2024/01/15 09:19:04;;;;;;;2.37;1.50;;;;;;;1.97;91.49;98679.22;5004232;28;20210;-77
2024/01/15 09:21:30;;;;;;;3.70;1.93;;;;;;;2.30;91.81;98687.38;5005699;28;20214;-79
2024/01/15 09:23:57;;;;;;;5.00;2.07;;;;;;;2.22;90.71;98704.66;5000535;28;20207;-78
2024/01/15 09:26:23;;;;;;;5.63;2.27;;;;;;;1.97;91.66;98709.25;4998880;28;20263;-77
2024/01/15 09:28:50;;;;;;;5.67;1.97;;;;;;;1.93;91.17;98741.03;4994891;28;20255;-76
2024/01/15 09:31:17;;;;;;;6.77;2.90;;;;;;;2.06;91.36;98719.44;4995851;28;20262;-79
2024/01/15 09:33:44;;;;;;;2.77;2.20;;;;;;;2.09;92.05;98708.25;4994978;28;20295;-77
2024/01/15 09:36:11;;;;;;;2.77;1.90;;;;;;;1.99;91.12;98723.81;4995545;28;20230;-78
2024/01/15 09:38:37;;;;;;;4.17;2.40;;;;;;;2.17;91.54;98715.00;4994727;28;20204;-78
2024/01/15 09:41:04;;;;;;;6.73;2.80;;;;;;;2.33;91.62;98714.81;4996066;28;20207;-78
2024/01/15 09:43:30;;;;;;;6.80;2.40;;;;;;;2.30;90.65;98745.72;4995274;28;20626;-79
2024/01/15 09:45:58;;;;;;;7.63;2.73;;;;;;;2.21;90.25;98762.16;4995350;28;20891;-78
2024/01/15 09:48:24;;;;;;;6.00;2.90;;;;;;;2.39;90.55;98761.06;4994383;28;20207;-78
2024/01/15 09:50:53;;;;;;;6.40;3.00;;;;;;;2.26;91.29;98773.25;4994965;28;20200;-78
2024/01/15 09:53:21;;;;;;;5.13;1.80;;;;;;;2.33;89.97;98766.28;4994932;28;20242;-79
2024/01/15 09:55:47;;;;;;;4.77;2.27;;;;;;;2.40;90.12;98778.22;4994571;28;20230;-79
2024/01/15 09:58:14;;;;;;;3.93;1.90;;;;;;;2.32;89.48;98785.19;4994707;28;20724;-78
2024/01/15 10:00:43;;;;;;;6.20;2.17;;;;;;;2.46;89.72;98788.44;4994762;28;20204;-78
2024/01/15 10:03:11;;;;;;;3.70;1.73;;;;;;;2.22;89.13;98811.91;4997280;28;20203;-78
2024/01/15 10:05:37;;;;;;;4.33;1.80;;;;;;;2.38;90.02;98790.28;4995245;28;20265;-78
2024/01/15 10:08:06;;;;;;;6.87;1.60;;;;;;;2.48;89.25;98789.28;4995409;28;20251;-78
2024/01/15 10:10:32;;;;;;;2.87;2.43;;;;;;;2.71;88.92;98808.72;4994902;28;20597;-78
2024/01/15 10:12:59;;;;;;;3.13;1.90;;;;;;;2.85;88.33;98831.72;4994810;28;20274;-78
2024/01/15 10:15:27;;;;;;;4.67;2.23;;;;;;;2.42;89.39;98848.59;4995364;28;20600;-77
2024/01/15 10:17:53;;;;;;;3.77;1.83;;;;;;;1.78;94.93;98799.53;4986716;28;20207;-78
2024/01/15 10:20:22;;;;;;;3.33;1.90;;;;;;;1.34;100.00;98671.38;4994496;28;20212;-79
2024/01/15 10:22:48;;;;;;;3.87;1.63;;;;;;;1.37;100.00;98538.56;4994399;28;20199;-77
2024/01/15 10:25:22;;;;;;;2.07;1.87;;;;;;;1.39;100.00;98464.84;4995429;28;20749;-78
2024/01/15 10:28:00;;;;;;;3.10;2.80;;;;;;;1.61;100.00;98435.41;4994882;28;20203;-78
2024/01/15 10:30:26;;;;;;;5.70;2.63;;;;;;;1.57;100.00;98435.44;4996411;28;20211;-80
2024/01/15 10:32:58;;;;;;;6.77;2.93;;;;;;;1.70;100.00;98436.09;4988357;28;20579;-79
2024/01/15 10:35:27;;;;;;;4.93;2.67;;;;;;;1.86;100.00;98446.13;4995887;28;20708;-78
2024/01/15 10:37:54;;;;;;;3.87;1.97;;;;;;;1.96;99.38;98497.44;4995864;28;20254;-78
2024/01/15 10:40:22;;;;;;;6.33;1.90;;;;;;;1.77;98.37;98525.16;4996603;28;20208;-79
2024/01/15 10:42:48;;;;;;;3.03;2.03;;;;;;;1.94;97.19;98534.34;4995616;28;20738;-80
2024/01/15 10:45:15;;;;;;;2.80;1.80;;;;;;;1.97;94.54;98585.75;4996266;28;20251;-78
2024/01/15 10:47:42;;;;;;;4.33;1.60;;;;;;;1.99;93.97;98610.59;4995812;28;20234;-80
2024/01/15 10:50:09;;;;;;;3.60;1.20;;;;;;;2.04;94.32;98625.94;4994770;28;20212;-80
2024/01/15 10:52:37;;;;;;;4.80;1.60;;;;;;;1.98;94.33;98650.06;4993108;28;20239;-79
2024/01/15 10:55:04;;;;;;;4.30;1.83;;;;;;;1.96;93.22;98671.53;4994759;28;20254;-77
2024/01/15 10:57:32;;;;;;;4.33;1.37;;;;;;;1.97;93.10;98684.38;5004454;28;20242;-79
2024/01/15 10:59:59;;;;;;;2.40;1.40;;;;;;;1.89;92.82;98687.94;4994707;28;20211;-78
2024/01/15 11:02:26;;;;;;;2.67;1.80;;;;;;;2.07;92.87;98690.25;4994823;28;20225;-78
2024/01/15 11:04:59;;;;;;;3.23;1.73;;;;;;;1.91;93.77;98687.03;4994110;28;20867;-78
2024/01/15 11:07:25;;;;;;;3.03;1.80;;;;;;;1.92;93.11;98690.44;4994522;28;20282;-78
2024/01/15 11:09:52;;;;;;;2.57;1.70;;;;;;;2.06;93.27;98696.28;4994277;28;20749;-78
2024/01/15 11:12:19;;;;;;;2.40;1.40;;;;;;;2.27;91.73;98705.44;4993486;28;20646;-77
2024/01/15 11:14:49;;;;;;;2.03;1.60;;;;;;;2.07;91.50;98728.03;4992456;28;20254;-78
2024/01/15 11:17:16;;;;;;;4.60;1.87;;;;;;;2.25;90.19;98750.94;4995303;28;20287;-78
2024/01/15 11:19:47;;;;;;;3.27;1.73;;;;;;;2.10;89.54;98774.28;4993064;28;20209;-79
2024/01/15 11:22:43;;;;;;;2.53;1.57;;;;;;;2.28;89.72;98779.25;4995399;28;20242;-78
2024/01/15 11:25:14;;;;;;;2.30;1.53;;;;;;;2.06;89.23;98795.78;4991153;28;20225;-77
2024/01/15 11:27:42;;;;;;;4.43;2.63;;;;;;;2.02;90.72;98778.69;4993136;28;20218;-79
2024/01/15 11:30:11;;;;;;;3.83;3.53;;;;;;;1.98;90.10;98765.88;4993504;28;20676;-77
2024/01/15 11:32:41;;;;;;;3.80;1.97;;;;;;;2.02;90.25;98778.69;4993275;28;20208;-78
2024/01/15 11:35:19;;;;;;;3.57;2.40;;;;;;;2.16;90.39;98769.94;5101232;27;20555;-77
2024/01/15 11:37:58;;;;;;;6.23;2.33;;;;;;;2.04;89.13;98788.06;5086094;28;20208;-78